Valetudo Skyrunning

3 aprile 2011 - Almenno San Salvatore (BG)

Classifica
generale
Atleta Società Anno Sesso Categoria Classifica
categoria
Tempo
ufficiale
Tempo
reale
Media
1 Ionut Alin Zinca Csu Craiova 1983 M ASSM 1 1:49:51.59 1:49:50.92 4' 42"
2 Mamleev Mikhail Valetudo Skyrunning Italia 1975 M ASSM 2 1:50:16.80 1:50:16.54 4' 43"
3 Zanaboni Massimiliano Atletica Valli Bergamasche 1972 M ASSM 3 1:52:12.19 1:52:11.84 4' 48"
4 Rabat Michel Course Des Perics 1983 M ASSM 4 1:53:30.00 1:53:29.10 4' 51"
5 Regazzoni Andrea Atletica Valli Bergamasche 1978 M ASSM 5 1:54:47.39 1:54:46.89 4' 54"
6 Gotti Paolo G.S. Altitude 1977 M ASSM 6 1:57:00.20 1:56:59.56 5' 0"
7 Semperboni Michele G.S. Altitude 1976 M ASSM 7 1:57:13.15 1:57:13.15 5' 1"
8 Bani Franco Free Zone 1967 M ASSM 8 1:59:52.83 1:59:50.76 5' 8"
9 Crosas Salvans Gabriel Diedre/Petzl 1977 M ASSM 9 2:00:12.00 2:00:09.52 5' 8"
10 Fenaroli Maurizio Valetudo Skyrunning Italia 1973 M ASSM 10 2:02:00.11 2:01:58.07 5' 13"
11 Aurell Bove Pere Diedre/Petzl 1983 M ASSM 11 2:02:54.43 2:02:52.51 5' 15"
12 Galindo Pereira David La Pedriza Del Manzanares 1976 M ASSM 12 2:05:49.17 2:05:47.30 5' 23"
13 Wosik Daniel Valetudo Skyrunning Italia 1980 M ASSM 13 2:05:58.27 2:05:58.27 5' 23"
14 Casal Mir Oscar Soldeu Esqui Club 1979 M ASSM 14 2:06:09.33 2:06:07.82 5' 24"
15 Casal Mir Marc Soldeu Esqui Club 1982 M ASSM 15 2:06:39.23 2:06:38.22 5' 25"
16 Bostan Adrian Ecomarathon 1984 M ASSM 16 2:06:59.58 2:06:55.25 5' 26"
17 Toniolo Mauro Valetudo Skyrunning Italia 1971 M ASSM 17 2:07:12.71 2:07:12.71 5' 26"
18 Rosina Mirko Team Valtellina Asd 1982 M ASSM 18 2:08:07.03 2:08:05.91 5' 29"
19 Fiorentini Marino Paolo Atletica Centro Lario 1970 M ASSM 19 2:09:28.00 2:09:26.24 5' 32"
20 De Maria Davide Atletica Centro Lario 1981 M ASSM 20 2:09:35.00 2:09:34.96 5' 32"
21 Tomasoni Paolo Fulter Sport 1963 M OVER45 1 2:09:39.70 2:09:39.70 5' 33"
22 Rigonelli Dario O.S.A. Valmadrera 1977 M ASSM 21 2:10:43.00 2:10:41.28 5' 35"
23 Hernandez Gispert Jessed Diedre/Petzl 1983 M ASSM 22 2:11:45.00 2:11:43.10 5' 38"
24 Riva Francesco I Bagay 1977 M ASSM 23 2:12:07.00 2:11:52.49 5' 39"
25 Sanna Luca Adm Ponte 1979 M ASSM 24 2:12:21.86 2:12:21.70 5' 40"
26 Bonfanti Fabio G.S. Altitude 1975 M ASSM 25 2:12:37.00 2:12:37.00 5' 40"
27 Brizio Emanuela Valetudo Skyrunning Italia 1968 F DONNE 1 2:12:55.48 2:12:52.47 5' 41"
28 Silvani Stefano Team Valtellina Asd 1973 M ASSM 26 2:14:02.17 2:13:59.84 5' 44"
29 Ferrari Massimiliano Icini Malva 1974 M ASSM 27 2:14:22.28 2:14:20.61 5' 45"
30 Berlinghieri Clemente Valetudo Skyrunning Italia 1972 M ASSM 28 2:15:00.54 2:14:58.90 5' 46"
31 Bertarini Andrea G.P. Santi Nuova Olonio 1971 M ASSM 29 2:15:07.37 2:14:58.14 5' 47"
32 Farina Roberto G.S. Altitude 1969 M ASSM 30 2:15:29.63 2:15:28.29 5' 48"
33 Cortinovis Ivan G.S. Altitude 1976 M ASSM 31 2:16:46.00 2:16:44.47 5' 51"
34 Mascetti Fiorenzo Atletica Centro Lario 1964 M OVER45 2 2:17:17.69 2:17:16.35 5' 52"
35 Ruzza Stefano Atl. San Marco 1982 M ASSM 32 2:17:25.41 2:17:14.89 5' 53"
36 Andreotti Roberto G.P.L. Galbiate 1960 M OVER45 3 2:17:57.03 2:17:50.71 5' 54"
37 Parareda Nadeu Jordi Uniò Excursionista Vic 1979 M ASSM 33 2:18:12.03 2:18:09.01 5' 55"
38 Verza Gian Luca Libero 1969 M ASSM 34 2:18:39.51 2:18:27.99 5' 56"
39 Cubero Martín José Javier La Pedriza Del Manzanares 1974 M ASSM 35 2:18:53.00 2:18:53.00 5' 56"
40 Licini Delfino Libero 1964 M OVER45 4 2:19:11.76 2:19:08.49 5' 57"
41 Erena Ribas Dani Diedre/Petzl 1982 M ASSM 36 2:19:33.00 2:19:31.72 5' 58"
42 Baroni Antonio Valetudo Skyrunning Italia 1952 M OVER55 1 2:19:53.63 2:19:51.09 5' 59"
43 Saba Nicola Asd Runners Bergamo 1976 M ASSM 37 2:20:52.00 2:20:47.24 6' 1"
44 Anuchkin Oleg Valetudo Skyrunning Italia 1962 M OVER45 5 2:21:24.62 2:21:10.18 6' 3"
45 Picas Albets Núria Diedre/Petzl 1976 F DONNE 2 2:21:37.56 2:21:35.06 6' 3"
46 D'Agostino Andrea Sev Valmadrera 1952 M OVER55 2 2:21:45.06 2:21:37.40 6' 4"
47 Sobrero Claudio Valetudo Skyrunning Italia 1964 M OVER45 6 2:21:52.20 2:21:48.80 6' 4"
48 Rodriguez Fernandez Francisco Diedre/Petzl 1980 M ASSM 38 2:22:09.19 2:22:09.19 6' 5"
49 Mora Cecilia Valetudo Skyrunning Italia 1966 F DONNE 3 2:22:13.76 2:22:10.16 6' 5"
50 Micheli Marco Gs Orobie 1969 M ASSM 39 2:22:17.57 2:22:00.22 6' 5"
51 Meignen Arthur Course Des Perics 1978 M ASSM 40 2:23:11.40 2:23:11.40 6' 7"
52 Cianfrini Massimo Asd Runners Bergamo 1964 M OVER45 7 2:24:14.70 2:24:10.44 6' 10"
53 Faverio Riccardo Gs Orobie 1969 M ASSM 41 2:24:42.90 2:24:42.90 6' 11"
54 Viviani Mirko Libero 1978 M ASSM 42 2:24:48.64 2:24:41.71 6' 12"
55 Staniek Miroslaw Valetudo Skyrunning Italia 1990 M ASSM 43 2:24:53.70 2:24:50.74 6' 12"
56 Lorenzi Matteo Valetudo Skyrunning Italia 1977 M ASSM 44 2:25:18.45 2:25:12.66 6' 13"
57 Bernardi Alessandro Adamello Skyrunning 1980 M ASSM 45 2:25:40.00 2:25:35.66 6' 14"
58 Tarabini Matteo G.S. Valgerola Ciapparelli 1978 M ASSM 46 2:26:19.40 2:26:16.10 6' 15"
59 Invernizzi Giancarlo Conti 1959 M OVER45 8 2:26:33.85 2:26:32.70 6' 16"
60 Copelli Massimiliano Kinomana Skyrunning 1973 M ASSM 47 2:26:57.82 2:26:39.34 6' 17"
61 Frigeni Cesare Libero 1980 M ASSM 48 2:26:57.94 2:26:37.10 6' 17"
62 Guerra Herrero Alexandre Soldeu Esqui Club 1986 M ASSM 49 2:27:05.46 2:27:01.27 6' 17"
63 Bonacina Giorgio Sev Valmadrera 1960 M OVER45 9 2:27:39.25 2:27:28.88 6' 19"
64 Soler Segu Gerard Diedre/Petzl 1985 M ASSM 50 2:27:50.59 2:27:44.95 6' 19"
65 Zecchi Alberto Runners Valbossa 1969 M ASSM 51 2:28:47.04 2:28:25.09 6' 22"
66 Casanova Isensé Llull C.C.E. Penedes 1977 M ASSM 52 2:29:48.42 2:29:42.62 6' 24"
67 Cavalli Giovanna Asd Runners Bergamo 1959 F DONNE 4 2:30:11.12 2:30:03.97 6' 25"
68 Roncalli Giorgio G.P. Sabbio 1968 M ASSM 53 2:30:14.24 2:29:55.26 6' 26"
69 Scotti Ester Valetudo Skyrunning Italia 1968 F DONNE 5 2:30:30.99 2:30:26.84 6' 26"
70 Brenna Francesco Tommy Sport 1969 M ASSM 54 2:30:40.00 2:30:33.83 6' 27"
71 Rossi Claudio G.S. Altitude 1978 M ASSM 55 2:31:08.58 2:31:06.42 6' 28"
72 Castelnovo Giuseppe O.S.A. Valmadrera 1962 M OVER45 10 2:31:27.15 2:31:27.15 6' 29"
73 Mazzoleni Osvaldo Running Torre De' Roveri 1955 M OVER55 3 2:31:53.92 2:31:41.09 6' 30"
74 Lombardini Luca O.S.A. Valmadrera 1972 M ASSM 56 2:31:57.28 2:31:42.00 6' 30"
75 Pozzi Franco Pell E Oss Monza 1959 M OVER45 11 2:32:35.10 2:32:31.08 6' 32"
76 Bonilla Rodríguez Agustín La Pedriza Del Manzanares 1973 M ASSM 57 2:33:46.00 2:33:35.66 6' 35"
77 Plavan Marina Valetudo Skyrunning Italia 1961 F DONNE 6 2:34:10.25 2:34:05.12 6' 36"
78 Fascendini Giuseppe Sev Valmadrera 1966 M ASSM 58 2:34:38.81 2:34:26.83 6' 37"
79 Pellicioli Elisa Felter Sport 1959 F DONNE 7 2:34:59.50 2:34:59.50 6' 38"
80 Vassena Davide O.S.A. Valmadrera 1986 M ASSM 59 2:35:47.00 2:35:31.07 6' 40"
81 Labonia Isabella Valetudo Skyrunning Italia 1977 F DONNE 8 2:36:25.79 2:36:20.60 6' 41"
82 Feudo Cristian Kinomana Skyrunning 1970 M ASSM 60 2:36:43.54 2:36:25.29 6' 42"
83 Pesenti Giacomo A.S.D. Fò Di Pe 1960 M OVER45 12 2:36:56.12 2:36:43.41 6' 43"
84 Bertoldini Taddeo A.S.D. 2Slow 1981 M ASSM 61 2:36:59.10 2:36:59.10 6' 43"
85 Fumagalli Simone Libero 1974 M ASSM 62 2:37:06.00 2:37:06.00 6' 43"
86 Beccia Domenico Valetudo Skyrunning Italia 1967 M ASSM 63 2:37:16.06 2:37:07.09 6' 44"
87 Rusconi Andrea O.S.A. Valmadrera 1990 M ASSM 64 2:37:30.29 2:37:18.04 6' 44"
88 De Arriba Cejudo Antonio Diedre/Petzl 1966 M ASSM 65 2:38:00.36 2:37:54.76 6' 45"
89 Lama Stefano Kinomana Skyrunning 1964 M OVER45 13 2:39:04.11 2:38:45.38 6' 48"
90 Mangili Flavio Asd Runners Bergamo 1952 M OVER55 4 2:39:04.31 2:39:04.31 6' 48"
91 Invernizzi Giuseppe Sev Valmadrera 1960 M OVER45 14 2:39:28.74 2:39:20.35 6' 49"
92 Vismara Mario

-

1956 M OVER45 15 2:39:28.79 2:39:19.95 6' 49"
93 Melchiorri Marco Atletic Team 2000 1963 M OVER45 16 2:39:44.00 2:39:30.86 6' 50"
94 Rottoli Giacomo Valetudo Skyrunning Italia 1964 M OVER45 17 2:39:53.47 2:39:42.14 6' 50"
95 Lumassi Fabrizio A.S.D. Fò Di Pe 1957 M OVER45 18 2:39:53.87 2:39:43.92 6' 50"
96 Dell'Era Roberto Caldera 1977 M ASSM 66 2:40:31.00 2:40:31.00 6' 52"
97 Panzeri Simone Brigacc De Ela 1971 M ASSM 67 2:41:06.00 2:41:06.00 6' 53"
98 Casati Massimo G.S. Altitude 1956 M OVER45 19 2:41:37.23 2:41:37.23 6' 55"
99 Comi Olimpio Maurizio Brigacc De Ela 1961 M OVER45 20 2:42:04.50 2:41:48.35 6' 56"
100 Zazo Cañada María José La Pedriza Del Manzanares 1964 F DONNE 9 2:42:09.79 2:42:06.79 6' 56"
101 Acerbis Domenico Stefano Valetudo Skyrunning Italia 1973 M ASSM 68 2:42:34.08 2:42:33.21 6' 57"
102 Guerrero Fresneda Francisco José La Pedriza Del Manzanares 1966 M ASSM 69 2:42:51.00 2:42:40.05 6' 58"
103 Longhi Davide O.S.A. Valmadrera 1969 M ASSM 70 2:42:55.61 2:42:51.31 6' 58"
104 Lorello Ivan Brogioli Sport Verghera 1976 M ASSM 71 2:43:00.93 2:42:46.87 6' 58"
105 Carrara Angelo G.S. Altitude 1975 M ASSM 72 2:43:05.64 2:42:55.58 6' 59"
106 Piazzalunga Andrea Asd Runners Bergamo 1972 M ASSM 73 2:43:22.51 2:43:04.28 6' 59"
107 Bresciani Alberto Gsa Intra 1972 M ASSM 74 2:43:40.28 2:43:26.80 7' 0"
108 Conti Anna Libero 1980 F DONNE 10 2:43:41.91 2:43:34.48 7' 0"
109 Llorente Manzanares Mónica La Pedriza Del Manzanares 1973 F DONNE 11 2:44:15.85 2:44:11.34 7' 2"
110 Villa Silvio Athletic Club Villasanta 1964 M OVER45 21 2:44:41.01 2:44:41.01 7' 3"
111 Beretta Nicola Asd Runners Bergamo 1973 M ASSM 75 2:44:47.99 2:44:40.69 7' 3"
112 Bisquert Gabarros Uniò Excursionista Vic 1964 M OVER45 22 2:45:32.28 2:45:09.45 7' 5"
113 Restani Emanuele Marathon Martinengo 1971 M ASSM 76 2:45:32.32 2:45:22.97 7' 5"
114 Gibellini Stefano Asd Runners Bergamo 1973 M ASSM 77 2:45:34.89 2:45:22.30 7' 5"
115 Anuchkin Mikhail Valetudo Skyrunning Italia 1993 M JM 1 2:45:46.39 2:45:43.72 7' 5"
116 Castelli Gerolamo Avis Oggiono 1950 M OVER55 5 2:46:03.18 2:45:58.47 7' 6"
117 Giannini Elios Gp Gorgonzola 88 1975 M ASSM 78 2:46:35.99 2:46:21.68 7' 8"
118 Fumagalli Diego Atletica 3V 1967 M ASSM 79 2:46:56.00 2:46:53.92 7' 8"
119 Giudici Riccardo Libero 1974 M ASSM 80 2:47:01.01 2:46:57.96 7' 9"
120 Salvoni Marco Valetudo Skyrunning Italia 1984 M ASSM 81 2:47:04.22 2:46:57.01 7' 9"
121 Cordoni Luca Valetudo Skyrunning Italia 1978 M ASSM 82 2:47:13.00 2:47:06.74 7' 9"
122 Antoniazzi Claudio Corso Di Corsa 1983 M ASSM 83 2:47:18.00 2:46:56.38 7' 9"
123 Spinelli Giuliano G.P. Villasantese 1961 M OVER45 23 2:47:20.43 2:47:16.28 7' 9"
124 Fabris Alessandro Sky Explorer 1979 M ASSM 84 2:47:44.02 2:47:36.00 7' 11"
125 Lancini Francesco Gs Padile 1976 M ASSM 85 2:47:52.41 2:47:37.63 7' 11"
126 Bolis Giosuè Sev Valmadrera 1955 M OVER55 6 2:48:20.87 2:48:05.20 7' 12"
127 Barbieri Ivan   1970 M ASSM 86 2:48:46.00 2:48:35.91 7' 13"
128 Bragonzi Marco Running Club Soresina 1979 M ASSM 87 2:49:26.49 2:49:11.90 7' 15"
129 Mainetti Pio O.S.A. Valmadrera 1954 M OVER55 7 2:50:01.06 2:50:01.06 7' 16"
130 Mondini Diego Adamello Skyrunning 1985 M ASSM 88 2:50:01.48 2:49:55.37 7' 16"
131 Perez Daví Toni Diedre/Petzl 1972 M ASSM 89 2:50:12.20 2:50:07.18 7' 17"
132 Ferrario Marco G.S. Torrevilla Di Monticello 1979 M ASSM 90 2:50:41.30 2:50:22.52 7' 18"
133 Giulivi Arnaldo Road Runners Poviglio 1954 M OVER55 8 2:51:10.40 2:50:50.92 7' 19"
134 Invernizzi Maurizio Sev Valmadrera 1964 M OVER45 24 2:51:19.49 2:51:04.31 7' 20"
135 Parlagreco Alessandro Asd Runners Bergamo 1977 M ASSM 91 2:51:39.00 2:51:37.47 7' 21"
136 Cesani Marco Avis Vigevano 1962 M OVER45 25 2:51:40.22 2:51:27.58 7' 21"
137 Caprini Sergio A.S.D. Fò Di Pe 1960 M OVER45 26 2:52:51.92 2:52:38.87 7' 24"
138 Saccomani Vanessa Valetudo Skyrunning Italia 1975 F DONNE 12 2:52:52.46 2:52:43.72 7' 24"
139 Vergura Carmela Valetudo Skyrunning Italia 1963 F DONNE 13 2:53:01.51 2:52:39.45 7' 24"
140 Chiappa Alessandro G.S. Altitude 1973 M ASSM 92 2:53:05.00 2:52:42.06 7' 24"
141 Ubbiali Antonio Medirun Cus Bergamo 1989 M ASSM 93 2:53:14.90 2:53:12.13 7' 25"
142 Pizzagalli Claudio Asd Falchi Lecco 1967 M ASSM 94 2:53:15.00 2:52:58.53 7' 25"
143 Bianchi Stefano Gs Orobie 1983 M ASSM 95 2:53:17.00 2:53:17.00 7' 25"
144 Colombo Fabrizio Atl. San Marco 1975 M ASSM 96 2:53:56.73 2:53:42.35 7' 26"
145 Ferrari Luciano Young Running 1953 M OVER55 9 2:54:15.77 2:53:58.08 7' 27"
146 Caretti Romina Colibri 1973 F DONNE 14 2:54:21.00 2:53:59.23 7' 28"
147 Jiménez Hernández Miguel Ángel La Pedriza Del Manzanares 1970 M ASSM 97 2:54:57.72 2:54:47.90 7' 29"
148 Brugarola Lluís Parcerisas Uniò Excursionista Vic 1968 M ASSM 98 2:57:12.65 2:56:50.00 7' 35"
149 Brambilla Enrico Libero 1959 M OVER45 27 2:57:47.00 2:57:47.00 7' 36"
150 Prenanosa Pennarubia David Diedre/Petzl 1978 M ASSM 99 2:58:02.37 2:57:56.78 7' 37"
151 Pansa Giovanni Asd Runners Bergamo 1958 M OVER45 28 2:58:48.44 2:58:24.45 7' 39"
152 Filigura Alessandro Asd Falchi Lecco 1970 M ASSM 100 2:59:01.50 2:58:47.83 7' 40"
153 Radice Maurizio Gamber De Cuncuress 1959 M OVER45 29 2:59:42.82 2:59:35.03 7' 41"
154 Chiappa Silvia G.S. Altitude 1972 F DONNE 15 3:00:12.03 3:00:02.75 7' 43"
155 Macchi Mauro Spirito Trail A.S.D. 1968 M ASSM 101 3:00:16.24 3:00:02.49 7' 43"
156 Calderone Calogero Friesian Team 1963 M OVER45 30 3:00:57.70 3:00:42.06 7' 44"
157 Erra Puig Marc Diedre/Petzl 1972 M ASSM 102 3:01:15.39 3:01:08.81 7' 45"
158 Comi Giancarlo Atl. Fri.Ma.S. 1960 M OVER45 31 3:02:00.30 3:01:53.68 7' 47"
159 Tarantola Salvatore Valetudo Skyrunning Italia 1968 M ASSM 103 3:02:27.11 3:02:18.32 7' 48"
160 Pasinelli Daniele Atl. Libertas Castegnato 1986 M ASSM 104 3:02:48.21 3:02:28.78 7' 49"
161 Bonacina Ivan Valetudo Skyrunning Italia 1968 M ASSM 105 3:03:00.30 3:03:00.00 7' 50"
162 Caserza Guido Gsd Eurobike Cremolino 1979 M ASSM 106 3:03:13.40 3:03:06.74 7' 50"
163 Sala Emilio G.S. Torrevilla Di Monticello 1965 M OVER45 32 3:03:17.73 3:02:58.83 7' 50"
164 Puricelli Franco Atletica 3V 1957 M OVER45 33 3:04:48.12 3:04:30.28 7' 54"
165 Festa Bianchet Mario Skyrunning Valsesia 2000 1965 M OVER45 34 3:05:06.08 3:04:53.70 7' 55"
166 Cortinovis Gianbosco Atletica Valle Brembana 1953 M OVER55 10 3:05:20.90 3:05:00.53 7' 56"
167 Rota Luca G.S. Altitude 1960 M OVER45 35 3:05:53.80 3:05:53.80 7' 57"
168 Stropeni Osvaldo Sev Valmadrera 1953 M OVER55 11 3:06:08.32 3:06:08.32 7' 58"
169 Dudek Sylwester Valetudo Skyrunning Italia 1963 M OVER45 36 3:06:48.66 3:06:48.66 7' 59"
170 Iseni Simone G.P. Sabbio 1975 M ASSM 107 3:06:54.04 3:06:30.40 8' 0"
171 Salsa Giulio Skyrunning Valsesia 2000 1969 M ASSM 108 3:07:18.73 3:07:18.73 8' 1"
172 Bellotto Cecilia Athletic Club Villasanta 1975 F DONNE 16 3:07:31.99 3:07:27.00 8' 1"
173 Angioletti Cristiano Asd Runners Bergamo 1970 M ASSM 109 3:08:02.83 3:07:47.56 8' 3"
174 Tagliabue Giovanni Us Acli Giuriati P.Garimoldi 1950 M OVER55 12 3:08:37.40 3:08:27.28 8' 4"
175 Ferrari Antonio Europa Sc 1973 M ASSM 110 3:08:51.31 3:08:45.37 8' 5"
176 Galli Ferdinando Marathon Team Bg 1957 M OVER45 37 3:09:13.67 3:09:13.67 8' 6"
177 Ferrario Franco Libero 1962 M OVER45 38 3:09:30.77 3:09:08.35 8' 6"
178 Aldizio Massimo Tommy Sport 1968 M ASSM 111 3:10:12.47 3:09:58.35 8' 8"
179 Bracchi Valentino Atl. Franciacorta 1950 M OVER55 13 3:10:19.73 3:09:59.63 8' 9"
180 Novati Giuliana Atletica 3V 1975 F DONNE 17 3:11:02.22 3:10:45.41 8' 10"
181 Longhi Floriano Brigacc De Ela 1955 M OVER55 14 3:11:20.98 3:10:57.51 8' 11"
182 Pensa Giuseppe G.P. Santi Nuova Olonio 1971 M ASSM 112 3:12:37.56 3:12:24.23 8' 14"
183 Brandts Stephan Colibri 1966 M ASSM 113 3:16:06.22 3:15:43.02 8' 23"
184 Gibellini Giorgio Asd Runners Bergamo 1971 M ASSM 114 3:16:12.00 3:15:49.85 8' 24"
185 Caretti Andrea Colibri 1970 M ASSM 115 3:16:13.00 3:16:13.00 8' 24"
186 Silveira Thierry Diedre/Petzl 1963 M OVER45 39 3:17:00.30 3:16:52.73 8' 26"
187 Mallorquín Esteban Paloma La Pedriza Del Manzanares 1974 F DONNE 18 3:17:29.80 3:17:24.72 8' 27"
188 Vistalli Ermando Gs Orobie 1958 M OVER45 40 3:18:29.63 3:18:10.87 8' 30"
189 Porcu Paolo Carlo Libero 1972 M